sensor_id;sensor_type;location;lat;lon;timestamp;P1;durP1;ratioP1;P2;durP2;ratioP2
21107;SDS011;10712;52.944;9.098;2023-11-19T00:00:45;11.20;;;2.97;;
21107;SDS011;10712;52.944;9.098;2023-11-19T00:03:11;2.50;;;2.30;;
21107;SDS011;10712;52.944;9.098;2023-11-19T00:05:38;3.35;;;3.00;;
21107;SDS011;10712;52.944;9.098;2023-11-19T00:08:04;7.03;;;2.78;;
21107;SDS011;10712;52.944;9.098;2023-11-19T00:10:31;8.77;;;2.95;;
21107;SDS011;10712;52.944;9.098;2023-11-19T00:12:57;2.97;;;2.78;;
21107;SDS011;10712;52.944;9.098;2023-11-19T00:15:23;5.20;;;3.22;;
21107;SDS011;10712;52.944;9.098;2023-11-19T00:17:49;6.93;;;3.10;;
21107;SDS011;10712;52.944;9.098;2023-11-19T00:20:16;3.40;;;3.10;;
21107;SDS011;10712;52.944;9.098;2023-11-19T00:22:44;3.53;;;3.22;;
21107;SDS011;10712;52.944;9.098;2023-11-19T00:25:13;5.03;;;3.75;;
21107;SDS011;10712;52.944;9.098;2023-11-19T00:27:40;3.20;;;2.97;;
21107;SDS011;10712;52.944;9.098;2023-11-19T00:30:06;4.97;;;3.38;;
21107;SDS011;10712;52.944;9.098;2023-11-19T00:32:33;6.30;;;3.55;;
21107;SDS011;10712;52.944;9.098;2023-11-19T00:34:59;4.50;;;3.15;;
21107;SDS011;10712;52.944;9.098;2023-11-19T00:37:25;6.18;;;3.38;;
21107;SDS011;10712;52.944;9.098;2023-11-19T00:39:51;3.78;;;3.47;;
21107;SDS011;10712;52.944;9.098;2023-11-19T00:42:17;5.15;;;3.78;;
21107;SDS011;10712;52.944;9.098;2023-11-19T00:44:43;6.35;;;3.60;;
21107;SDS011;10712;52.944;9.098;2023-11-19T00:47:11;9.80;;;3.90;;
21107;SDS011;10712;52.944;9.098;2023-11-19T00:49:37;3.67;;;3.38;;
21107;SDS011;10712;52.944;9.098;2023-11-19T00:52:03;4.03;;;3.70;;
21107;SDS011;10712;52.944;9.098;2023-11-19T00:54:29;4.15;;;3.50;;
21107;SDS011;10712;52.944;9.098;2023-11-19T00:56:55;6.43;;;3.55;;
21107;SDS011;10712;52.944;9.098;2023-11-19T00:59:21;6.90;;;4.28;;
21107;SDS011;10712;52.944;9.098;2023-11-19T01:01:46;7.00;;;3.80;;
21107;SDS011;10712;52.944;9.098;2023-11-19T01:04:22;3.90;;;3.60;;
21107;SDS011;10712;52.944;9.098;2023-11-19T01:06:49;4.57;;;4.18;;
21107;SDS011;10712;52.944;9.098;2023-11-19T01:09:15;5.38;;;4.60;;
21107;SDS011;10712;52.944;9.098;2023-11-19T01:11:41;5.47;;;4.22;;
21107;SDS011;10712;52.944;9.098;2023-11-19T01:14:07;6.05;;;4.22;;
21107;SDS011;10712;52.944;9.098;2023-11-19T01:16:32;5.80;;;3.95;;
21107;SDS011;10712;52.944;9.098;2023-11-19T01:18:58;5.75;;;4.13;;
21107;SDS011;10712;52.944;9.098;2023-11-19T01:21:30;5.32;;;4.40;;
21107;SDS011;10712;52.944;9.098;2023-11-19T01:23:57;4.97;;;4.57;;
21107;SDS011;10712;52.944;9.098;2023-11-19T01:26:24;4.47;;;4.07;;
21107;SDS011;10712;52.944;9.098;2023-11-19T01:28:50;7.70;;;4.40;;
21107;SDS011;10712;52.944;9.098;2023-11-19T01:31:18;5.57;;;5.05;;
21107;SDS011;10712;52.944;9.098;2023-11-19T01:33:44;4.18;;;3.75;;
21107;SDS011;10712;52.944;9.098;2023-11-19T01:36:14;7.47;;;4.63;;
21107;SDS011;10712;52.944;9.098;2023-11-19T01:38:40;4.53;;;4.13;;
21107;SDS011;10712;52.944;9.098;2023-11-19T01:41:06;4.03;;;3.72;;
21107;SDS011;10712;52.944;9.098;2023-11-19T01:46:02;5.20;;;4.10;;
21107;SDS011;10712;52.944;9.098;2023-11-19T01:48:33;4.35;;;3.97;;
21107;SDS011;10712;52.944;9.098;2023-11-19T01:51:04;4.20;;;3.90;;
21107;SDS011;10712;52.944;9.098;2023-11-19T01:53:33;5.15;;;4.25;;
21107;SDS011;10712;52.944;9.098;2023-11-19T01:56:03;5.13;;;4.63;;
21107;SDS011;10712;52.944;9.098;2023-11-19T01:58:35;10.47;;;5.67;;
21107;SDS011;10712;52.944;9.098;2023-11-19T02:01:05;7.85;;;4.78;;
21107;SDS011;10712;52.944;9.098;2023-11-19T02:03:32;6.87;;;5.13;;
21107;SDS011;10712;52.944;9.098;2023-11-19T02:06:00;6.38;;;4.95;;
21107;SDS011;10712;52.944;9.098;2023-11-19T02:08:26;5.03;;;4.63;;
21107;SDS011;10712;52.944;9.098;2023-11-19T02:10:52;5.20;;;4.80;;
21107;SDS011;10712;52.944;9.098;2023-11-19T02:13:22;5.28;;;4.85;;
21107;SDS011;10712;52.944;9.098;2023-11-19T02:15:48;5.18;;;4.78;;
21107;SDS011;10712;52.944;9.098;2023-11-19T02:18:17;5.30;;;4.80;;
21107;SDS011;10712;52.944;9.098;2023-11-19T02:20:54;4.97;;;4.57;;
21107;SDS011;10712;52.944;9.098;2023-11-19T02:23:20;6.43;;;5.10;;
21107;SDS011;10712;52.944;9.098;2023-11-19T02:25:47;8.30;;;5.43;;
21107;SDS011;10712;52.944;9.098;2023-11-19T02:28:58;6.15;;;5.55;;
21107;SDS011;10712;52.944;9.098;2023-11-19T02:31:24;7.53;;;6.82;;
21107;SDS011;10712;52.944;9.098;2023-11-19T02:33:52;7.45;;;6.75;;
21107;SDS011;10712;52.944;9.098;2023-11-19T02:36:18;7.70;;;7.00;;
21107;SDS011;10712;52.944;9.098;2023-11-19T02:38:44;7.57;;;6.88;;
21107;SDS011;10712;52.944;9.098;2023-11-19T02:41:10;8.88;;;7.30;;
21107;SDS011;10712;52.944;9.098;2023-11-19T02:43:36;9.82;;;8.52;;
21107;SDS011;10712;52.944;9.098;2023-11-19T02:46:04;10.48;;;9.38;;
21107;SDS011;10712;52.944;9.098;2023-11-19T02:48:34;10.23;;;9.23;;
21107;SDS011;10712;52.944;9.098;2023-11-19T02:51:01;11.85;;;10.65;;
21107;SDS011;10712;52.944;9.098;2023-11-19T02:53:34;12.38;;;10.57;;
21107;SDS011;10712;52.944;9.098;2023-11-19T02:56:02;14.23;;;12.75;;
21107;SDS011;10712;52.944;9.098;2023-11-19T02:58:45;15.85;;;13.77;;
21107;SDS011;10712;52.944;9.098;2023-11-19T03:01:11;15.93;;;14.02;;
21107;SDS011;10712;52.944;9.098;2023-11-19T03:03:48;15.70;;;13.82;;
21107;SDS011;10712;52.944;9.098;2023-11-19T03:06:19;18.52;;;15.77;;
21107;SDS011;10712;52.944;9.098;2023-11-19T03:08:46;19.52;;;15.52;;
21107;SDS011;10712;52.944;9.098;2023-11-19T03:11:13;17.20;;;15.38;;
21107;SDS011;10712;52.944;9.098;2023-11-19T03:13:39;16.75;;;15.02;;
21107;SDS011;10712;52.944;9.098;2023-11-19T03:16:05;17.83;;;14.10;;
21107;SDS011;10712;52.944;9.098;2023-11-19T03:18:32;17.97;;;16.07;;
21107;SDS011;10712;52.944;9.098;2023-11-19T03:20:58;22.05;;;15.38;;
21107;SDS011;10712;52.944;9.098;2023-11-19T03:23:24;17.00;;;14.85;;
21107;SDS011;10712;52.944;9.098;2023-11-19T03:25:53;19.63;;;15.65;;
21107;SDS011;10712;52.944;9.098;2023-11-19T03:28:20;16.33;;;14.63;;
21107;SDS011;10712;52.944;9.098;2023-11-19T03:30:46;20.23;;;15.38;;
21107;SDS011;10712;52.944;9.098;2023-11-19T03:33:12;19.98;;;15.95;;
21107;SDS011;10712;52.944;9.098;2023-11-19T03:35:38;19.17;;;14.80;;
21107;SDS011;10712;52.944;9.098;2023-11-19T03:38:06;17.27;;;15.48;;
21107;SDS011;10712;52.944;9.098;2023-11-19T03:40:32;17.95;;;14.82;;
21107;SDS011;10712;52.944;9.098;2023-11-19T03:42:58;17.05;;;15.05;;
21107;SDS011;10712;52.944;9.098;2023-11-19T03:45:24;21.02;;;16.23;;
21107;SDS011;10712;52.944;9.098;2023-11-19T03:47:50;16.27;;;14.57;;
21107;SDS011;10712;52.944;9.098;2023-11-19T03:50:16;18.02;;;16.13;;
21107;SDS011;10712;52.944;9.098;2023-11-19T03:52:45;24.20;;;17.48;;
21107;SDS011;10712;52.944;9.098;2023-11-19T03:55:12;24.88;;;17.55;;
21107;SDS011;10712;52.944;9.098;2023-11-19T03:57:38;19.88;;;17.38;;
21107;SDS011;10712;52.944;9.098;2023-11-19T04:00:04;17.02;;;15.32;;
21107;SDS011;10712;52.944;9.098;2023-11-19T04:02:39;20.48;;;17.00;;
21107;SDS011;10712;52.944;9.098;2023-11-19T04:05:06;21.60;;;17.25;;
21107;SDS011;10712;52.944;9.098;2023-11-19T04:07:32;21.60;;;18.30;;
21107;SDS011;10712;52.944;9.098;2023-11-19T04:09:59;22.13;;;17.45;;
21107;SDS011;10712;52.944;9.098;2023-11-19T04:12:25;23.23;;;18.23;;
21107;SDS011;10712;52.944;9.098;2023-11-19T04:14:51;23.70;;;18.25;;
21107;SDS011;10712;52.944;9.098;2023-11-19T04:17:18;26.77;;;20.20;;
21107;SDS011;10712;52.944;9.098;2023-11-19T04:19:43;24.98;;;18.92;;
21107;SDS011;10712;52.944;9.098;2023-11-19T04:22:09;25.73;;;18.50;;
21107;SDS011;10712;52.944;9.098;2023-11-19T04:24:36;28.50;;;17.30;;
21107;SDS011;10712;52.944;9.098;2023-11-19T04:27:04;21.83;;;17.88;;
21107;SDS011;10712;52.944;9.098;2023-11-19T04:29:31;21.25;;;18.08;;
21107;SDS011;10712;52.944;9.098;2023-11-19T04:31:57;24.08;;;19.10;;
21107;SDS011;10712;52.944;9.098;2023-11-19T04:34:24;19.13;;;17.05;;
21107;SDS011;10712;52.944;9.098;2023-11-19T04:36:51;22.70;;;17.08;;
21107;SDS011;10712;52.944;9.098;2023-11-19T04:39:16;25.25;;;18.15;;
21107;SDS011;10712;52.944;9.098;2023-11-19T04:41:47;24.63;;;16.73;;
21107;SDS011;10712;52.944;9.098;2023-11-19T04:44:15;23.27;;;18.75;;
21107;SDS011;10712;52.944;9.098;2023-11-19T04:46:41;22.85;;;18.55;;
21107;SDS011;10712;52.944;9.098;2023-11-19T04:49:09;21.63;;;17.35;;
21107;SDS011;10712;52.944;9.098;2023-11-19T04:51:43;25.10;;;19.25;;
21107;SDS011;10712;52.944;9.098;2023-11-19T04:54:12;21.73;;;17.80;;
21107;SDS011;10712;52.944;9.098;2023-11-19T04:56:38;21.60;;;16.50;;
21107;SDS011;10712;52.944;9.098;2023-11-19T04:59:05;28.38;;;19.45;;
21107;SDS011;10712;52.944;9.098;2023-11-19T05:01:32;26.02;;;18.10;;
21107;SDS011;10712;52.944;9.098;2023-11-19T05:03:58;25.38;;;16.90;;
21107;SDS011;10712;52.944;9.098;2023-11-19T05:06:30;30.38;;;17.92;;
21107;SDS011;10712;52.944;9.098;2023-11-19T05:08:57;23.33;;;16.92;;
21107;SDS011;10712;52.944;9.098;2023-11-19T05:11:26;24.40;;;17.50;;
21107;SDS011;10712;52.944;9.098;2023-11-19T05:13:53;27.58;;;17.10;;
21107;SDS011;10712;52.944;9.098;2023-11-19T05:16:19;29.35;;;16.58;;
21107;SDS011;10712;52.944;9.098;2023-11-19T05:18:46;24.40;;;17.50;;
21107;SDS011;10712;52.944;9.098;2023-11-19T05:21:12;25.38;;;16.27;;
21107;SDS011;10712;52.944;9.098;2023-11-19T05:23:38;25.48;;;15.70;;
21107;SDS011;10712;52.944;9.098;2023-11-19T05:26:04;19.48;;;15.23;;
21107;SDS011;10712;52.944;9.098;2023-11-19T05:28:30;26.17;;;16.60;;
21107;SDS011;10712;52.944;9.098;2023-11-19T05:30:57;26.48;;;15.35;;
21107;SDS011;10712;52.944;9.098;2023-11-19T05:33:22;26.42;;;15.18;;
21107;SDS011;10712;52.944;9.098;2023-11-19T05:35:48;24.67;;;15.10;;
21107;SDS011;10712;52.944;9.098;2023-11-19T05:38:15;24.88;;;14.95;;
21107;SDS011;10712;52.944;9.098;2023-11-19T05:40:41;23.05;;;13.35;;
21107;SDS011;10712;52.944;9.098;2023-11-19T05:43:07;20.98;;;13.25;;
21107;SDS011;10712;52.944;9.098;2023-11-19T05:45:33;22.20;;;13.17;;
21107;SDS011;10712;52.944;9.098;2023-11-19T05:47:58;29.60;;;13.63;;
21107;SDS011;10712;52.944;9.098;2023-11-19T05:50:24;25.50;;;14.40;;
21107;SDS011;10712;52.944;9.098;2023-11-19T05:52:50;29.23;;;13.60;;
21107;SDS011;10712;52.944;9.098;2023-11-19T05:55:18;31.42;;;12.60;;
21107;SDS011;10712;52.944;9.098;2023-11-19T05:57:44;35.20;;;12.55;;
21107;SDS011;10712;52.944;9.098;2023-11-19T06:00:10;27.58;;;12.93;;
21107;SDS011;10712;52.944;9.098;2023-11-19T06:02:38;28.27;;;11.40;;
21107;SDS011;10712;52.944;9.098;2023-11-19T06:05:04;23.85;;;10.48;;
21107;SDS011;10712;52.944;9.098;2023-11-19T06:07:34;28.10;;;11.70;;
21107;SDS011;10712;52.944;9.098;2023-11-19T06:10:01;26.67;;;9.55;;
21107;SDS011;10712;52.944;9.098;2023-11-19T06:12:32;30.02;;;9.52;;
21107;SDS011;10712;52.944;9.098;2023-11-19T06:15:06;24.65;;;9.27;;
21107;SDS011;10712;52.944;9.098;2023-11-19T06:17:34;28.92;;;8.05;;
21107;SDS011;10712;52.944;9.098;2023-11-19T06:19:59;21.25;;;6.13;;
21107;SDS011;10712;52.944;9.098;2023-11-19T06:22:25;21.20;;;6.40;;
21107;SDS011;10712;52.944;9.098;2023-11-19T06:24:51;19.85;;;6.38;;
21107;SDS011;10712;52.944;9.098;2023-11-19T06:27:17;23.77;;;6.15;;
21107;SDS011;10712;52.944;9.098;2023-11-19T06:29:43;21.35;;;5.75;;
21107;SDS011;10712;52.944;9.098;2023-11-19T06:32:09;21.85;;;5.97;;
21107;SDS011;10712;52.944;9.098;2023-11-19T06:34:34;20.40;;;5.97;;
21107;SDS011;10712;52.944;9.098;2023-11-19T06:37:00;22.25;;;7.35;;
21107;SDS011;10712;52.944;9.098;2023-11-19T06:39:29;26.02;;;6.03;;
21107;SDS011;10712;52.944;9.098;2023-11-19T06:41:55;38.08;;;6.68;;
21107;SDS011;10712;52.944;9.098;2023-11-19T06:44:21;26.48;;;5.22;;
21107;SDS011;10712;52.944;9.098;2023-11-19T06:46:48;23.63;;;4.97;;
21107;SDS011;10712;52.944;9.098;2023-11-19T06:49:14;23.75;;;4.57;;
21107;SDS011;10712;52.944;9.098;2023-11-19T06:51:42;23.73;;;5.60;;
21107;SDS011;10712;52.944;9.098;2023-11-19T06:54:09;30.48;;;6.45;;
21107;SDS011;10712;52.944;9.098;2023-11-19T06:56:35;30.75;;;5.45;;
21107;SDS011;10712;52.944;9.098;2023-11-19T06:59:02;27.55;;;5.05;;
21107;SDS011;10712;52.944;9.098;2023-11-19T07:01:27;24.13;;;5.57;;
21107;SDS011;10712;52.944;9.098;2023-11-19T07:03:59;27.13;;;5.22;;
21107;SDS011;10712;52.944;9.098;2023-11-19T07:06:27;24.35;;;5.45;;
21107;SDS011;10712;52.944;9.098;2023-11-19T07:08:53;28.67;;;5.60;;
21107;SDS011;10712;52.944;9.098;2023-11-19T07:11:18;25.30;;;5.28;;
21107;SDS011;10712;52.944;9.098;2023-11-19T07:13:44;20.48;;;4.68;;
21107;SDS011;10712;52.944;9.098;2023-11-19T07:16:11;33.30;;;6.35;;
21107;SDS011;10712;52.944;9.098;2023-11-19T07:18:40;28.95;;;5.43;;
21107;SDS011;10712;52.944;9.098;2023-11-19T07:21:06;23.08;;;5.00;;
21107;SDS011;10712;52.944;9.098;2023-11-19T07:23:35;33.58;;;5.97;;
21107;SDS011;10712;52.944;9.098;2023-11-19T07:26:01;29.33;;;5.80;;
21107;SDS011;10712;52.944;9.098;2023-11-19T07:28:33;28.38;;;6.80;;
21107;SDS011;10712;52.944;9.098;2023-11-19T07:30:59;25.25;;;7.30;;
21107;SDS011;10712;52.944;9.098;2023-11-19T07:33:24;24.40;;;6.22;;
21107;SDS011;10712;52.944;9.098;2023-11-19T07:35:50;28.25;;;5.88;;
21107;SDS011;10712;52.944;9.098;2023-11-19T07:38:16;26.33;;;6.13;;
21107;SDS011;10712;52.944;9.098;2023-11-19T07:40:43;26.20;;;5.72;;
21107;SDS011;10712;52.944;9.098;2023-11-19T07:43:09;28.77;;;5.30;;
21107;SDS011;10712;52.944;9.098;2023-11-19T07:45:35;27.83;;;5.70;;
21107;SDS011;10712;52.944;9.098;2023-11-19T07:48:01;24.83;;;5.18;;
21107;SDS011;10712;52.944;9.098;2023-11-19T07:50:27;28.80;;;6.30;;
21107;SDS011;10712;52.944;9.098;2023-11-19T07:52:55;27.88;;;5.60;;
21107;SDS011;10712;52.944;9.098;2023-11-19T07:55:21;21.98;;;5.20;;
21107;SDS011;10712;52.944;9.098;2023-11-19T07:57:46;29.58;;;5.88;;
21107;SDS011;10712;52.944;9.098;2023-11-19T08:00:14;32.90;;;7.53;;
21107;SDS011;10712;52.944;9.098;2023-11-19T08:02:40;26.30;;;7.18;;
21107;SDS011;10712;52.944;9.098;2023-11-19T08:05:06;38.60;;;7.55;;
21107;SDS011;10712;52.944;9.098;2023-11-19T08:07:32;30.08;;;7.30;;
21107;SDS011;10712;52.944;9.098;2023-11-19T08:09:58;31.08;;;6.18;;
21107;SDS011;10712;52.944;9.098;2023-11-19T08:12:25;29.05;;;6.03;;
21107;SDS011;10712;52.944;9.098;2023-11-19T08:14:51;37.83;;;7.20;;
21107;SDS011;10712;52.944;9.098;2023-11-19T08:17:16;30.75;;;9.98;;
21107;SDS011;10712;52.944;9.098;2023-11-19T08:19:42;27.88;;;10.63;;
21107;SDS011;10712;52.944;9.098;2023-11-19T08:22:08;37.00;;;8.65;;
21107;SDS011;10712;52.944;9.098;2023-11-19T08:24:34;24.33;;;5.20;;
21107;SDS011;10712;52.944;9.098;2023-11-19T08:27:01;19.40;;;5.15;;
21107;SDS011;10712;52.944;9.098;2023-11-19T08:29:27;28.83;;;6.35;;
21107;SDS011;10712;52.944;9.098;2023-11-19T08:31:53;29.77;;;8.05;;
21107;SDS011;10712;52.944;9.098;2023-11-19T08:34:19;29.98;;;6.88;;
21107;SDS011;10712;52.944;9.098;2023-11-19T08:36:44;21.98;;;5.63;;
21107;SDS011;10712;52.944;9.098;2023-11-19T08:39:10;21.48;;;5.82;;
21107;SDS011;10712;52.944;9.098;2023-11-19T08:41:36;25.67;;;5.18;;
21107;SDS011;10712;52.944;9.098;2023-11-19T08:44:03;18.35;;;3.85;;
21107;SDS011;10712;52.944;9.098;2023-11-19T08:46:29;28.05;;;5.07;;
21107;SDS011;10712;52.944;9.098;2023-11-19T08:48:55;29.35;;;5.78;;
21107;SDS011;10712;52.944;9.098;2023-11-19T08:51:22;34.55;;;5.30;;
21107;SDS011;10712;52.944;9.098;2023-11-19T08:53:50;28.75;;;4.70;;
21107;SDS011;10712;52.944;9.098;2023-11-19T08:56:15;25.35;;;4.80;;
21107;SDS011;10712;52.944;9.098;2023-11-19T08:58:41;25.25;;;3.95;;
21107;SDS011;10712;52.944;9.098;2023-11-19T09:01:07;23.85;;;3.92;;
21107;SDS011;10712;52.944;9.098;2023-11-19T09:03:34;32.70;;;11.93;;
21107;SDS011;10712;52.944;9.098;2023-11-19T09:06:02;24.25;;;5.70;;
21107;SDS011;10712;52.944;9.098;2023-11-19T09:08:28;27.13;;;5.47;;
21107;SDS011;10712;52.944;9.098;2023-11-19T09:10:53;21.70;;;3.85;;
21107;SDS011;10712;52.944;9.098;2023-11-19T09:13:19;20.45;;;4.15;;
21107;SDS011;10712;52.944;9.098;2023-11-19T09:15:45;29.88;;;4.95;;
21107;SDS011;10712;52.944;9.098;2023-11-19T09:18:11;20.08;;;3.90;;
21107;SDS011;10712;52.944;9.098;2023-11-19T09:20:37;26.75;;;4.85;;
21107;SDS011;10712;52.944;9.098;2023-11-19T09:23:04;23.23;;;4.50;;
21107;SDS011;10712;52.944;9.098;2023-11-19T09:25:31;25.15;;;4.60;;
21107;SDS011;10712;52.944;9.098;2023-11-19T09:27:57;24.02;;;4.95;;
21107;SDS011;10712;52.944;9.098;2023-11-19T09:30:23;35.55;;;7.00;;
21107;SDS011;10712;52.944;9.098;2023-11-19T09:32:48;27.63;;;5.97;;
21107;SDS011;10712;52.944;9.098;2023-11-19T09:35:14;33.33;;;6.75;;
21107;SDS011;10712;52.944;9.098;2023-11-19T09:37:41;42.08;;;9.10;;
21107;SDS011;10712;52.944;9.098;2023-11-19T09:40:08;34.92;;;5.95;;
21107;SDS011;10712;52.944;9.098;2023-11-19T09:42:40;40.00;;;6.50;;
21107;SDS011;10712;52.944;9.098;2023-11-19T09:45:15;34.03;;;5.82;;
21107;SDS011;10712;52.944;9.098;2023-11-19T09:47:46;27.65;;;5.40;;
21107;SDS011;10712;52.944;9.098;2023-11-19T09:50:14;26.85;;;5.93;;
21107;SDS011;10712;52.944;9.098;2023-11-19T09:52:45;34.80;;;6.50;;
21107;SDS011;10712;52.944;9.098;2023-11-19T09:55:12;30.27;;;7.55;;
21107;SDS011;10712;52.944;9.098;2023-11-19T09:57:39;25.83;;;5.82;;
21107;SDS011;10712;52.944;9.098;2023-11-19T10:00:10;26.48;;;5.65;;
21107;SDS011;10712;52.944;9.098;2023-11-19T10:02:40;26.75;;;6.85;;
21107;SDS011;10712;52.944;9.098;2023-11-19T10:05:07;25.85;;;6.32;;
21107;SDS011;10712;52.944;9.098;2023-11-19T10:07:33;30.42;;;7.57;;
21107;SDS011;10712;52.944;9.098;2023-11-19T10:10:02;34.42;;;6.45;;
21107;SDS011;10712;52.944;9.098;2023-11-19T10:12:30;29.48;;;5.35;;
21107;SDS011;10712;52.944;9.098;2023-11-19T10:14:57;23.90;;;5.32;;
21107;SDS011;10712;52.944;9.098;2023-11-19T10:17:42;26.10;;;6.50;;
21107;SDS011;10712;52.944;9.098;2023-11-19T10:20:08;22.55;;;4.80;;
21107;SDS011;10712;52.944;9.098;2023-11-19T10:22:38;24.42;;;6.13;;
21107;SDS011;10712;52.944;9.098;2023-11-19T10:25:05;39.22;;;7.22;;
21107;SDS011;10712;52.944;9.098;2023-11-19T10:27:48;30.95;;;6.20;;
21107;SDS011;10712;52.944;9.098;2023-11-19T10:30:17;31.95;;;6.35;;
21107;SDS011;10712;52.944;9.098;2023-11-19T10:33:12;30.10;;;6.18;;
21107;SDS011;10712;52.944;9.098;2023-11-19T10:38:20;35.00;;;6.07;;
21107;SDS011;10712;52.944;9.098;2023-11-19T10:40:47;32.13;;;5.70;;
21107;SDS011;10712;52.944;9.098;2023-11-19T10:43:14;31.60;;;5.72;;
21107;SDS011;10712;52.944;9.098;2023-11-19T10:45:40;32.67;;;6.82;;
21107;SDS011;10712;52.944;9.098;2023-11-19T10:48:06;28.48;;;5.00;;
21107;SDS011;10712;52.944;9.098;2023-11-19T10:50:37;25.48;;;5.18;;
21107;SDS011;10712;52.944;9.098;2023-11-19T10:53:06;28.55;;;5.30;;
21107;SDS011;10712;52.944;9.098;2023-11-19T10:55:35;32.00;;;5.97;;
21107;SDS011;10712;52.944;9.098;2023-11-19T10:58:06;21.65;;;5.60;;
21107;SDS011;10712;52.944;9.098;2023-11-19T11:03:19;22.85;;;5.70;;
21107;SDS011;10712;52.944;9.098;2023-11-19T11:08:15;26.48;;;5.10;;
21107;SDS011;10712;52.944;9.098;2023-11-19T11:10:43;36.50;;;6.20;;
21107;SDS011;10712;52.944;9.098;2023-11-19T11:13:20;34.28;;;6.28;;
21107;SDS011;10712;52.944;9.098;2023-11-19T11:15:52;34.08;;;5.40;;
21107;SDS011;10712;52.944;9.098;2023-11-19T11:18:22;24.80;;;5.88;;
21107;SDS011;10712;52.944;9.098;2023-11-19T11:20:50;39.20;;;6.68;;
21107;SDS011;10712;52.944;9.098;2023-11-19T11:23:32;32.25;;;5.78;;
21107;SDS011;10712;52.944;9.098;2023-11-19T11:26:38;37.13;;;5.95;;
21107;SDS011;10712;52.944;9.098;2023-11-19T11:32:16;28.23;;;6.25;;
21107;SDS011;10712;52.944;9.098;2023-11-19T11:35:55;32.38;;;6.25;;
21107;SDS011;10712;52.944;9.098;2023-11-19T11:38:04;36.05;;;7.13;;
21107;SDS011;10712;52.944;9.098;2023-11-19T11:40:32;38.90;;;7.40;;
21107;SDS011;10712;52.944;9.098;2023-11-19T11:42:59;42.50;;;7.32;;
21107;SDS011;10712;52.944;9.098;2023-11-19T11:45:38;33.95;;;6.53;;
21107;SDS011;10712;52.944;9.098;2023-11-19T11:48:17;38.10;;;7.18;;
21107;SDS011;10712;52.944;9.098;2023-11-19T11:50:51;45.97;;;6.15;;
21107;SDS011;10712;52.944;9.098;2023-11-19T11:53:20;29.60;;;6.05;;
21107;SDS011;10712;52.944;9.098;2023-11-19T11:58:18;30.02;;;6.57;;
21107;SDS011;10712;52.944;9.098;2023-11-19T12:00:46;25.65;;;5.68;;
21107;SDS011;10712;52.944;9.098;2023-11-19T12:03:14;29.73;;;6.43;;
21107;SDS011;10712;52.944;9.098;2023-11-19T12:05:45;32.42;;;7.03;;
21107;SDS011;10712;52.944;9.098;2023-11-19T12:08:13;36.28;;;6.40;;
21107;SDS011;10712;52.944;9.098;2023-11-19T12:10:52;31.70;;;6.25;;
21107;SDS011;10712;52.944;9.098;2023-11-19T12:13:23;37.63;;;7.05;;
21107;SDS011;10712;52.944;9.098;2023-11-19T12:18:26;38.45;;;6.18;;
21107;SDS011;10712;52.944;9.098;2023-11-19T12:20:56;36.85;;;6.55;;
21107;SDS011;10712;52.944;9.098;2023-11-19T12:23:28;30.73;;;5.47;;
21107;SDS011;10712;52.944;9.098;2023-11-19T12:25:55;29.20;;;5.40;;
21107;SDS011;10712;52.944;9.098;2023-11-19T12:28:22;37.17;;;6.35;;
21107;SDS011;10712;52.944;9.098;2023-11-19T12:30:49;36.85;;;11.43;;
21107;SDS011;10712;52.944;9.098;2023-11-19T12:33:16;38.85;;;7.43;;
21107;SDS011;10712;52.944;9.098;2023-11-19T12:35:43;31.85;;;7.07;;
21107;SDS011;10712;52.944;9.098;2023-11-19T12:38:19;34.60;;;5.80;;
21107;SDS011;10712;52.944;9.098;2023-11-19T12:40:47;25.70;;;5.63;;
21107;SDS011;10712;52.944;9.098;2023-11-19T12:43:36;37.17;;;6.05;;
21107;SDS011;10712;52.944;9.098;2023-11-19T12:46:21;29.50;;;5.35;;
21107;SDS011;10712;52.944;9.098;2023-11-19T12:48:49;33.40;;;5.60;;
21107;SDS011;10712;52.944;9.098;2023-11-19T12:51:16;27.15;;;6.18;;
21107;SDS011;10712;52.944;9.098;2023-11-19T12:56:18;28.13;;;6.13;;
21107;SDS011;10712;52.944;9.098;2023-11-19T12:58:44;18.08;;;4.65;;
21107;SDS011;10712;52.944;9.098;2023-11-19T13:01:10;28.50;;;6.10;;
21107;SDS011;10712;52.944;9.098;2023-11-19T13:03:45;28.52;;;6.40;;
21107;SDS011;10712;52.944;9.098;2023-11-19T13:06:14;31.65;;;6.35;;
21107;SDS011;10712;52.944;9.098;2023-11-19T13:08:44;21.55;;;5.03;;
21107;SDS011;10712;52.944;9.098;2023-11-19T13:11:29;39.83;;;14.05;;
21107;SDS011;10712;52.944;9.098;2023-11-19T13:13:59;25.05;;;5.45;;
21107;SDS011;10712;52.944;9.098;2023-11-19T13:18:56;19.33;;;4.65;;
21107;SDS011;10712;52.944;9.098;2023-11-19T13:21:23;34.83;;;5.82;;
21107;SDS011;10712;52.944;9.098;2023-11-19T13:23:49;18.65;;;2.50;;
21107;SDS011;10712;52.944;9.098;2023-11-19T13:26:15;12.68;;;2.10;;
21107;SDS011;10712;52.944;9.098;2023-11-19T13:28:41;19.67;;;2.75;;
21107;SDS011;10712;52.944;9.098;2023-11-19T13:31:07;10.23;;;1.90;;
21107;SDS011;10712;52.944;9.098;2023-11-19T13:33:33;10.75;;;1.30;;
21107;SDS011;10712;52.944;9.098;2023-11-19T13:35:59;6.13;;;1.27;;
21107;SDS011;10712;52.944;9.098;2023-11-19T13:38:30;2.95;;;1.05;;
21107;SDS011;10712;52.944;9.098;2023-11-19T13:41:03;6.43;;;1.52;;
21107;SDS011;10712;52.944;9.098;2023-11-19T13:43:29;3.38;;;0.80;;
21107;SDS011;10712;52.944;9.098;2023-11-19T13:45:56;4.10;;;1.00;;
21107;SDS011;10712;52.944;9.098;2023-11-19T13:48:23;9.10;;;2.05;;
21107;SDS011;10712;52.944;9.098;2023-11-19T13:50:50;6.55;;;1.60;;
21107;SDS011;10712;52.944;9.098;2023-11-19T13:53:16;6.85;;;1.15;;
21107;SDS011;10712;52.944;9.098;2023-11-19T13:55:42;5.53;;;1.77;;
21107;SDS011;10712;52.944;9.098;2023-11-19T13:58:08;8.50;;;2.15;;
21107;SDS011;10712;52.944;9.098;2023-11-19T14:00:35;11.77;;;2.10;;
21107;SDS011;10712;52.944;9.098;2023-11-19T14:03:01;9.80;;;2.45;;
21107;SDS011;10712;52.944;9.098;2023-11-19T14:05:28;8.40;;;2.30;;
21107;SDS011;10712;52.944;9.098;2023-11-19T14:07:54;13.55;;;2.83;;
21107;SDS011;10712;52.944;9.098;2023-11-19T14:10:21;11.60;;;3.50;;
21107;SDS011;10712;52.944;9.098;2023-11-19T14:12:48;27.75;;;12.80;;
21107;SDS011;10712;52.944;9.098;2023-11-19T14:15:15;23.88;;;6.22;;
21107;SDS011;10712;52.944;9.098;2023-11-19T14:17:42;17.77;;;5.47;;
21107;SDS011;10712;52.944;9.098;2023-11-19T14:20:08;17.75;;;4.97;;
21107;SDS011;10712;52.944;9.098;2023-11-19T14:22:43;23.60;;;5.00;;
21107;SDS011;10712;52.944;9.098;2023-11-19T14:25:12;22.38;;;4.30;;
21107;SDS011;10712;52.944;9.098;2023-11-19T14:27:41;21.35;;;4.60;;
21107;SDS011;10712;52.944;9.098;2023-11-19T14:30:10;16.45;;;3.83;;
21107;SDS011;10712;52.944;9.098;2023-11-19T14:32:38;14.50;;;4.25;;
21107;SDS011;10712;52.944;9.098;2023-11-19T14:35:08;20.95;;;5.45;;
21107;SDS011;10712;52.944;9.098;2023-11-19T14:37:34;13.82;;;3.63;;
21107;SDS011;10712;52.944;9.098;2023-11-19T14:40:01;18.98;;;3.95;;
21107;SDS011;10712;52.944;9.098;2023-11-19T14:42:31;11.75;;;3.17;;
21107;SDS011;10712;52.944;9.098;2023-11-19T14:44:57;10.48;;;2.90;;
21107;SDS011;10712;52.944;9.098;2023-11-19T14:47:26;15.50;;;3.03;;
21107;SDS011;10712;52.944;9.098;2023-11-19T14:49:52;11.00;;;2.78;;
21107;SDS011;10712;52.944;9.098;2023-11-19T14:52:18;11.10;;;2.25;;
21107;SDS011;10712;52.944;9.098;2023-11-19T14:54:44;16.45;;;2.85;;
21107;SDS011;10712;52.944;9.098;2023-11-19T14:57:09;18.08;;;2.97;;
21107;SDS011;10712;52.944;9.098;2023-11-19T14:59:36;15.13;;;3.30;;
21107;SDS011;10712;52.944;9.098;2023-11-19T15:02:04;14.07;;;3.92;;